Time;durP1;ratioP1;P1;durP2;ratioP2;P2;SDS_P1;SDS_P2;PMS_P1;PMS_P2;Temp;Humidity;BMP_temperature;BMP_pressure;BME280_temperature;BME280_humidity;BME280_pressure;Samples;Min_cycle;Max_cycle;Signal;HPM_P1;HPM_P2
2022/01/29 00:01:01;;;;;;;42.90;23.30;;;5.70;99.90;;;;;;5070256;28;20273;-60
2022/01/29 00:03:27;;;;;;;45.70;24.10;;;5.80;99.90;;;;;;5080659;28;20184;-61
2022/01/29 00:05:53;;;;;;;39.90;24.27;;;5.80;51.90;;;;;;5080140;28;20508;-61
2022/01/29 00:08:19;;;;;;;38.73;21.20;;;5.80;57.90;;;;;;5078411;28;20449;-61
2022/01/29 00:10:48;;;;;;;39.00;22.67;;;5.80;99.90;;;;;;5077711;28;20824;-61
2022/01/29 00:13:13;;;;;;;47.10;22.33;;;5.80;99.90;;;;;;5082977;28;20206;-61
2022/01/29 00:15:39;;;;;;;43.97;22.50;;;5.80;41.50;;;;;;5080075;28;20916;-61
2022/01/29 00:18:06;;;;;;;44.43;24.57;;;5.80;56.20;;;;;;5075097;28;20654;-61
2022/01/29 00:20:32;;;;;;;42.13;22.33;;;5.90;15.90;;;;;;5080398;28;20191;-61
2022/01/29 00:22:58;;;;;;;48.83;22.50;;;5.90;65.90;;;;;;5082460;28;20429;-60
2022/01/29 00:25:23;;;;;;;39.40;24.00;;;5.90;1.00;;;;;;5074988;28;20214;-61
2022/01/29 00:27:49;;;;;;;41.80;21.50;;;5.90;1.00;;;;;;5080840;28;20204;-61
2022/01/29 00:30:17;;;;;;;35.77;21.67;;;5.80;68.40;;;;;;5081656;28;20235;-61
2022/01/29 00:32:44;;;;;;;50.27;21.50;;;5.90;3.10;;;;;;5084670;28;20180;-61
2022/01/29 00:35:10;;;;;;;48.77;24.47;;;5.90;1.00;;;;;;5077958;28;20418;-61
2022/01/29 00:37:36;;;;;;;32.63;19.87;;;5.90;11.20;;;;;;5087797;28;20418;-61
2022/01/29 00:40:03;;;;;;;42.93;20.50;;;5.90;50.80;;;;;;5065506;28;20267;-61
2022/01/29 00:42:28;;;;;;;39.17;19.73;;;5.90;16.40;;;;;;5087047;28;20438;-61
2022/01/29 00:44:54;;;;;;;38.90;19.90;;;5.90;14.10;;;;;;5084378;28;20444;-61
2022/01/29 00:47:20;;;;;;;37.40;20.97;;;5.90;1.00;;;;;;5073894;28;20670;-61
2022/01/29 00:49:46;;;;;;;44.70;19.90;;;5.90;1.00;;;;;;5080140;28;20796;-61
2022/01/29 00:52:11;;;;;;;41.03;20.00;;;5.90;1.00;;;;;;5080377;28;20224;-61
2022/01/29 00:54:37;;;;;;;38.17;20.87;;;5.90;3.30;;;;;;5083999;28;20532;-61
2022/01/29 00:57:03;;;;;;;31.57;19.20;;;5.90;1.00;;;;;;5082076;28;20222;-61
2022/01/29 00:59:31;;;;;;;36.30;18.23;;;5.90;1.00;;;;;;5079898;28;20433;-61
2022/01/29 01:01:56;;;;;;;34.10;16.83;;;5.90;1.00;;;;;;5080037;28;20176;-61
2022/01/29 01:04:22;;;;;;;39.27;17.83;;;5.90;1.00;;;;;;5082435;28;20525;-61
2022/01/29 01:06:47;;;;;;;29.47;15.70;;;5.90;1.00;;;;;;5083969;28;20298;-61
2022/01/29 01:09:13;;;;;;;33.83;17.00;;;5.90;1.00;;;;;;5079914;28;20220;-62
2022/01/29 01:11:39;;;;;;;33.73;18.47;;;6.00;1.00;;;;;;5084122;28;20253;-61
2022/01/29 01:14:05;;;;;;;25.53;16.50;;;5.90;1.00;;;;;;5079942;28;20196;-61
2022/01/29 01:16:30;;;;;;;27.97;16.83;;;5.90;1.00;;;;;;5070351;28;20188;-61
2022/01/29 01:18:56;;;;;;;33.10;17.40;;;5.90;1.00;;;;;;5078495;28;20625;-61
2022/01/29 01:21:22;;;;;;;32.30;16.60;;;5.90;1.00;;;;;;5081365;28;20228;-61
2022/01/29 01:23:47;;;;;;;38.60;16.50;;;5.90;1.00;;;;;;5079884;28;20196;-61
2022/01/29 01:26:13;;;;;;;30.27;17.80;;;5.90;1.00;;;;;;5080824;28;20262;-61
2022/01/29 01:28:38;;;;;;;30.40;17.00;;;5.90;1.00;;;;;;5081402;28;20187;-61
2022/01/29 01:31:04;;;;;;;39.90;16.57;;;5.90;1.00;;;;;;5065304;28;20237;-61
2022/01/29 01:33:29;;;;;;;32.50;18.10;;;6.00;1.00;;;;;;5079744;28;20646;-61
2022/01/29 01:35:59;;;;;;;30.50;16.50;;;6.00;1.00;;;;;;5079907;28;20207;-62
2022/01/29 01:38:35;;;;;;;28.20;17.40;;;6.00;1.00;;;;;;5079612;28;20328;-61
2022/01/29 01:41:06;;;;;;;34.53;16.37;;;6.00;1.00;;;;;;5062950;28;20521;-61
2022/01/29 01:43:31;;;;;;;25.00;15.40;;;6.00;1.00;;;;;;5073391;28;20442;-61
2022/01/29 01:45:57;;;;;;;24.50;16.00;;;6.00;1.00;;;;;;5079536;28;20418;-61
2022/01/29 01:48:22;;;;;;;22.70;15.73;;;6.00;1.00;;;;;;5079667;28;20226;-61
2022/01/29 01:50:49;;;;;;;26.83;16.30;;;6.00;1.00;;;;;;5082886;28;20207;-61
2022/01/29 01:53:15;;;;;;;28.70;15.80;;;6.00;1.00;;;;;;5081541;28;20187;-61
2022/01/29 01:55:41;;;;;;;29.10;15.93;;;6.10;1.00;;;;;;5079254;28;20415;-61
2022/01/29 01:58:06;;;;;;;34.30;17.80;;;6.10;1.00;;;;;;5076783;28;20226;-61
2022/01/29 02:00:33;;;;;;;25.40;15.87;;;6.00;1.00;;;;;;5064844;28;20215;-61
2022/01/29 02:02:58;;;;;;;32.00;16.83;;;6.10;1.00;;;;;;5082461;28;20190;-61
2022/01/29 02:05:24;;;;;;;25.33;15.87;;;6.10;1.00;;;;;;5061572;28;20418;-61
2022/01/29 02:07:51;;;;;;;32.23;16.60;;;6.00;1.00;;;;;;5077003;28;20584;-62
2022/01/29 02:10:18;;;;;;;24.30;15.50;;;6.00;1.00;;;;;;5080308;28;20519;-61
2022/01/29 02:12:53;;;;;;;38.17;16.50;;;6.00;1.00;;;;;;5082363;28;20760;-61
2022/01/29 02:15:21;;;;;;;26.97;14.93;;;6.10;1.00;;;;;;5080590;28;20927;-61
2022/01/29 02:17:47;;;;;;;30.73;16.90;;;6.10;1.00;;;;;;5076812;28;20422;-61
2022/01/29 02:20:18;;;;;;;27.87;15.37;;;6.10;1.00;;;;;;5061868;28;20453;-61
2022/01/29 02:22:45;;;;;;;24.73;15.70;;;6.10;1.00;;;;;;5082182;28;20513;-61
2022/01/29 02:25:38;;;;;;;22.77;14.50;;;6.10;1.00;;;;;;5081375;28;20504;-61
2022/01/29 02:28:13;;;;;;;29.83;15.30;;;6.10;1.00;;;;;;5066048;28;20472;-61
2022/01/29 02:30:41;;;;;;;34.10;15.20;;;6.10;1.00;;;;;;5057738;28;20985;-61
2022/01/29 02:33:11;;;;;;;32.33;16.50;;;6.10;1.00;;;;;;5073696;28;20523;-61
2022/01/29 02:35:47;;;;;;;23.47;15.10;;;6.10;71.50;;;;;;5076171;28;20427;-61
2022/01/29 02:38:15;;;;;;;23.53;15.63;;;6.10;66.10;;;;;;5079460;28;20418;-61
2022/01/29 02:40:47;;;;;;;31.70;16.30;;;6.20;22.50;;;;;;5080793;28;20444;-61
2022/01/29 02:43:21;;;;;;;27.40;14.70;;;6.10;63.70;;;;;;5075696;28;20462;-61
2022/01/29 02:45:48;;;;;;;28.10;15.00;;;6.10;49.40;;;;;;5080909;28;20436;-61
2022/01/29 02:48:14;;;;;;;23.57;15.03;;;6.20;99.90;;;;;;5072345;28;20442;-61
2022/01/29 02:50:40;;;;;;;28.30;15.97;;;6.10;99.90;;;;;;5081835;28;20457;-61
2022/01/29 02:53:06;;;;;;;38.10;16.63;;;6.20;99.90;;;;;;5074069;28;20207;-61
2022/01/29 02:55:32;;;;;;;32.70;17.57;;;6.10;99.90;;;;;;5078286;28;20457;-61
2022/01/29 02:57:58;;;;;;;28.97;16.70;;;6.10;99.90;;;;;;5071235;28;20439;-61
2022/01/29 03:00:24;;;;;;;26.10;15.63;;;6.10;99.90;;;;;;5080233;28;20254;-61
2022/01/29 03:02:49;;;;;;;27.53;16.17;;;6.10;1.00;;;;;;5081422;28;20187;-61
2022/01/29 03:05:15;;;;;;;30.37;17.77;;;6.10;99.90;;;;;;5062261;28;20653;-61
2022/01/29 03:07:41;;;;;;;28.10;15.80;;;6.10;1.00;;;;;;5071042;28;20234;-61
2022/01/29 03:10:07;;;;;;;42.20;18.67;;;6.10;1.00;;;;;;5076930;28;20693;-61
2022/01/29 03:12:34;;;;;;;38.00;17.37;;;6.10;1.00;;;;;;5080952;28;20191;-61
2022/01/29 03:14:59;;;;;;;31.53;17.20;;;6.00;99.90;;;;;;5057072;28;20556;-61
2022/01/29 03:17:25;;;;;;;32.63;16.73;;;6.00;99.90;;;;;;5078710;28;20422;-61
2022/01/29 03:19:52;;;;;;;35.13;17.27;;;6.10;99.90;;;;;;5075769;28;20274;-61
2022/01/29 03:22:18;;;;;;;35.67;19.37;;;6.10;99.90;;;;;;5079236;28;20658;-61
2022/01/29 03:24:44;;;;;;;38.33;20.67;;;6.10;99.90;;;;;;5075945;28;20454;-61
2022/01/29 03:27:09;;;;;;;29.80;19.40;;;6.00;1.00;;;;;;5081620;28;20188;-61
2022/01/29 03:29:35;;;;;;;42.67;20.30;;;6.10;20.40;;;;;;5077839;28;20492;-61
2022/01/29 03:32:00;;;;;;;30.47;17.77;;;6.10;99.90;;;;;;5077582;28;20208;-61
2022/01/29 03:34:26;;;;;;;31.93;19.60;;;6.10;99.90;;;;;;5077052;28;20189;-61
2022/01/29 03:36:54;;;;;;;31.97;19.60;;;6.00;99.90;;;;;;5057826;28;20171;-61
2022/01/29 03:39:20;;;;;;;38.40;19.57;;;6.00;1.00;;;;;;5078801;28;20208;-61
2022/01/29 03:41:46;;;;;;;31.13;17.20;;;6.00;1.00;;;;;;5074973;28;21116;-61
2022/01/29 03:44:11;;;;;;;33.73;18.23;;;6.00;52.10;;;;;;5078147;28;20262;-61
2022/01/29 03:46:37;;;;;;;40.00;19.33;;;6.10;99.90;;;;;;5081053;28;20184;-61
2022/01/29 03:49:03;;;;;;;36.70;19.63;;;6.10;99.90;;;;;;5081135;28;20194;-61
2022/01/29 03:51:28;;;;;;;35.20;17.90;;;6.10;99.90;;;;;;5077051;28;20266;-61
2022/01/29 03:53:54;;;;;;;30.07;17.97;;;6.10;99.90;;;;;;5080635;28;20591;-61
2022/01/29 03:56:20;;;;;;;36.60;19.17;;;6.10;99.90;;;;;;5075240;28;20181;-61
2022/01/29 03:58:46;;;;;;;31.13;18.13;;;5.90;1.00;;;;;;5079749;28;20847;-61
2022/01/29 04:01:11;;;;;;;27.53;18.50;;;6.00;99.90;;;;;;5062137;28;20271;-61
2022/01/29 04:03:37;;;;;;;36.53;18.63;;;6.10;99.90;;;;;;5074422;28;20228;-61
2022/01/29 04:06:03;;;;;;;40.77;21.37;;;6.10;99.90;;;;;;5077530;28;20658;-61
2022/01/29 04:08:28;;;;;;;27.63;17.67;;;6.00;1.00;;;;;;5080331;28;20955;-61
2022/01/29 04:10:54;;;;;;;34.07;18.53;;;6.00;1.00;;;;;;5080692;28;20208;-61
2022/01/29 04:13:23;;;;;;;33.20;17.90;;;6.00;20.50;;;;;;5078967;28;20192;-61
2022/01/29 04:15:49;;;;;;;32.30;18.03;;;6.00;78.80;;;;;;5077113;28;20211;-61
2022/01/29 04:18:14;;;;;;;33.27;18.23;;;6.00;99.90;;;;;;5073631;28;20485;-61
2022/01/29 04:20:40;;;;;;;29.97;17.50;;;6.00;99.90;;;;;;5081372;28;20202;-61
2022/01/29 04:23:08;;;;;;;35.77;18.73;;;6.00;99.90;;;;;;5080495;28;20214;-61
2022/01/29 04:25:34;;;;;;;25.67;17.53;;;6.00;99.90;;;;;;5077202;28;20212;-61
2022/01/29 04:28:01;;;;;;;30.63;16.60;;;6.00;99.90;;;;;;5074176;28;20487;-61
2022/01/29 04:30:29;;;;;;;36.60;17.30;;;6.10;99.90;;;;;;5079933;28;20272;-61
2022/01/29 04:33:03;;;;;;;48.10;17.03;;;6.10;99.90;;;;;;5080361;28;20983;-61
2022/01/29 04:35:29;;;;;;;28.47;16.50;;;6.10;99.90;;;;;;5077739;28;20467;-61
2022/01/29 04:37:56;;;;;;;37.80;17.33;;;6.10;99.90;;;;;;5080826;28;20927;-61
2022/01/29 04:40:22;;;;;;;37.23;14.90;;;6.10;99.90;;;;;;5076188;28;20418;-61
2022/01/29 04:42:48;;;;;;;31.93;16.67;;;6.10;99.90;;;;;;5082893;28;20441;-61
2022/01/29 04:45:14;;;;;;;31.83;16.43;;;6.20;99.90;;;;;;5079675;28;20424;-61
2022/01/29 04:47:40;;;;;;;28.33;15.53;;;6.10;50.00;;;;;;5077433;28;20195;-61
2022/01/29 04:50:06;;;;;;;34.90;16.70;;;6.20;99.90;;;;;;5080487;28;20462;-61
2022/01/29 04:52:31;;;;;;;26.13;14.90;;;6.20;1.60;;;;;;5083797;28;20192;-61
2022/01/29 04:54:57;;;;;;;23.07;14.00;;;6.20;31.20;;;;;;5083994;28;20433;-61
2022/01/29 04:57:23;;;;;;;24.43;15.00;;;6.20;1.00;;;;;;5078195;28;20680;-61
2022/01/29 04:59:48;;;;;;;30.43;15.10;;;6.20;1.00;;;;;;5079741;28;20204;-61
2022/01/29 05:02:14;;;;;;;30.23;15.60;;;6.20;1.00;;;;;;5080276;28;20176;-62
2022/01/29 05:04:40;;;;;;;23.53;13.57;;;6.20;1.00;;;;;;5083969;28;20191;-61
2022/01/29 05:07:05;;;;;;;32.43;15.87;;;6.20;1.00;;;;;;5080761;28;20188;-61
2022/01/29 05:09:31;;;;;;;31.30;15.43;;;6.30;99.90;;;;;;5080136;28;20353;-61
2022/01/29 05:11:59;;;;;;;23.00;13.83;;;6.30;99.90;;;;;;5061658;28;20291;-61
2022/01/29 05:14:41;;;;;;;25.53;14.83;;;6.30;99.90;;;;;;5082106;28;20571;-61
2022/01/29 05:28:03;;;;;;;27.00;15.30;;;6.20;1.00;;;;;;5083743;28;20535;-61
2022/01/29 05:30:28;;;;;;;27.77;15.10;;;6.20;1.00;;;;;;5077484;28;21266;-61
2022/01/29 05:32:54;;;;;;;24.47;15.93;;;6.20;99.90;;;;;;5078262;28;20180;-61
2022/01/29 05:35:19;;;;;;;26.87;15.50;;;6.20;99.90;;;;;;5081428;28;20211;-61
2022/01/29 05:37:49;;;;;;;25.10;15.00;;;6.20;1.00;;;;;;5079781;28;20958;-61
2022/01/29 05:40:15;;;;;;;32.60;16.33;;;6.20;99.90;;;;;;5079413;28;20216;-61
2022/01/29 05:42:40;;;;;;;23.03;14.90;;;6.20;99.90;;;;;;5083424;28;20686;-61
2022/01/29 05:45:06;;;;;;;23.67;14.57;;;6.20;1.00;;;;;;5080745;28;20253;-61
2022/01/29 05:47:32;;;;;;;28.10;14.73;;;6.20;1.00;;;;;;5079537;28;20195;-61
2022/01/29 05:49:57;;;;;;;30.20;16.33;;;6.20;99.90;;;;;;5079334;28;20276;-61
2022/01/29 05:52:23;;;;;;;29.33;16.27;;;6.20;99.90;;;;;;5081689;28;20271;-61
2022/01/29 05:54:51;;;;;;;32.00;14.67;;;6.20;99.90;;;;;;5080816;28;20622;-61
2022/01/29 05:57:16;;;;;;;26.53;15.70;;;6.20;1.00;;;;;;5080823;28;20184;-61
2022/01/29 05:59:42;;;;;;;19.17;13.60;;;6.20;99.90;;;;;;5079397;28;20430;-61
2022/01/29 06:02:07;;;;;;;19.37;13.50;;;6.20;99.90;;;;;;5079243;28;20582;-61
2022/01/29 06:04:33;;;;;;;21.93;14.50;;;6.20;99.90;;;;;;5075036;28;20626;-61
2022/01/29 06:06:59;;;;;;;23.03;14.07;;;6.20;1.00;;;;;;5082857;28;20235;-61
2022/01/29 06:09:24;;;;;;;19.13;12.60;;;6.20;1.00;;;;;;5079583;28;20736;-61
2022/01/29 06:11:50;;;;;;;20.67;14.00;;;6.20;1.00;;;;;;5079053;28;20545;-61
2022/01/29 06:14:15;;;;;;;23.57;13.93;;;6.20;99.90;;;;;;5072513;28;20187;-61
2022/01/29 06:16:41;;;;;;;22.20;13.47;;;6.20;1.00;;;;;;5082548;28;20180;-61
2022/01/29 06:19:06;;;;;;;17.17;12.17;;;6.20;55.10;;;;;;5064053;28;20184;-61
2022/01/29 06:21:32;;;;;;;16.93;13.80;;;6.20;99.90;;;;;;5079117;28;20177;-61
2022/01/29 06:23:59;;;;;;;15.57;11.23;;;6.30;1.00;;;;;;5071145;28;20198;-61
2022/01/29 06:26:24;;;;;;;21.63;11.97;;;6.20;1.00;;;;;;5062233;28;20280;-61
2022/01/29 06:28:50;;;;;;;15.73;11.07;;;6.20;9.90;;;;;;5079891;28;20846;-61
2022/01/29 06:31:16;;;;;;;18.30;11.60;;;6.20;1.00;;;;;;5080463;28;20199;-61
2022/01/29 06:33:41;;;;;;;17.60;11.17;;;6.20;99.90;;;;;;5074815;28;20188;-61
2022/01/29 06:36:07;;;;;;;13.80;10.93;;;6.20;99.90;;;;;;5081049;28;20195;-61
2022/01/29 06:38:33;;;;;;;17.10;10.93;;;6.20;99.90;;;;;;5087732;28;20215;-61
2022/01/29 06:40:58;;;;;;;15.70;10.30;;;6.20;99.90;;;;;;5079884;28;20266;-61
2022/01/29 06:43:24;;;;;;;13.27;10.73;;;6.20;1.00;;;;;;5078170;28;20184;-61
2022/01/29 06:45:50;;;;;;;14.80;10.13;;;6.20;99.90;;;;;;5082650;28;20188;-61
2022/01/29 06:48:15;;;;;;;17.73;10.03;;;6.20;99.90;;;;;;5076972;28;20184;-61
2022/01/29 06:50:42;;;;;;;22.70;10.53;;;6.20;99.90;;;;;;5080867;28;20210;-61
2022/01/29 06:53:07;;;;;;;12.20;9.87;;;6.30;99.90;;;;;;5079451;28;20188;-61
2022/01/29 06:55:34;;;;;;;15.50;10.37;;;6.30;21.00;;;;;;5082105;28;20441;-60
2022/01/29 06:57:59;;;;;;;14.73;10.77;;;6.30;16.00;;;;;;5080889;28;20184;-61
2022/01/29 07:00:25;;;;;;;14.53;11.13;;;6.30;1.00;;;;;;5080095;28;20446;-61
2022/01/29 07:02:51;;;;;;;13.20;9.57;;;6.30;1.00;;;;;;5081355;28;20284;-61
2022/01/29 07:05:16;;;;;;;17.53;10.57;;;6.40;1.00;;;;;;5071483;28;20184;-61
2022/01/29 07:07:42;;;;;;;16.93;10.27;;;6.30;99.90;;;;;;5070388;28;20215;-61
2022/01/29 07:10:09;;;;;;;11.37;10.00;;;6.40;1.00;;;;;;5056526;28;20783;-61
2022/01/29 07:12:39;;;;;;;13.67;10.07;;;6.40;99.90;;;;;;5057354;28;20215;-61
2022/01/29 07:15:09;;;;;;;12.60;9.60;;;6.40;78.70;;;;;;5051058;28;20428;-63
2022/01/29 07:17:35;;;;;;;12.17;9.80;;;6.40;99.90;;;;;;5043029;28;20422;-60
2022/01/29 07:20:01;;;;;;;12.50;9.27;;;6.40;1.00;;;;;;5046165;28;20641;-63
2022/01/29 07:22:26;;;;;;;13.83;10.07;;;6.60;1.00;;;;;;5046402;28;20192;-65
2022/01/29 07:24:52;;;;;;;14.80;10.13;;;6.50;1.00;;;;;;5031891;28;20416;-61
2022/01/29 07:27:17;;;;;;;18.50;11.40;;;6.50;99.90;;;;;;5049313;28;20277;-64
2022/01/29 07:29:43;;;;;;;14.27;9.80;;;6.50;99.90;;;;;;5043181;28;20193;-63
2022/01/29 07:32:10;;;;;;;17.30;10.23;;;6.50;99.90;;;;;;5049635;28;20200;-64
2022/01/29 07:34:35;;;;;;;17.00;9.90;;;6.60;40.70;;;;;;5049301;28;20288;-62
2022/01/29 07:37:01;;;;;;;11.60;10.13;;;6.60;1.00;;;;;;5049120;28;20518;-65
2022/01/29 07:39:27;;;;;;;12.33;10.10;;;6.60;99.90;;;;;;5032087;28;20188;-61
2022/01/29 07:41:54;;;;;;;14.40;10.83;;;6.60;99.90;;;;;;5048967;28;20635;-66
2022/01/29 07:44:20;;;;;;;12.77;9.07;;;6.70;99.90;;;;;;5049165;28;20489;-63
2022/01/29 07:46:45;;;;;;;13.67;11.00;;;6.70;99.90;;;;;;5048102;28;20420;-63
2022/01/29 07:49:11;;;;;;;13.33;10.23;;;6.70;99.90;;;;;;5037336;28;20182;-63
2022/01/29 07:51:38;;;;;;;14.13;10.57;;;6.70;99.90;;;;;;5049361;28;20204;-63
2022/01/29 07:54:04;;;;;;;10.47;9.40;;;6.70;99.90;;;;;;5049219;28;20185;-63
2022/01/29 07:56:30;;;;;;;14.73;10.33;;;6.70;9.50;;;;;;5038687;28;20435;-63
2022/01/29 07:58:55;;;;;;;13.90;9.80;;;6.70;1.00;;;;;;5048604;28;20801;-63
2022/01/29 08:01:21;;;;;;;12.90;9.80;;;6.70;1.00;;;;;;5048368;28;20271;-63
2022/01/29 08:03:48;;;;;;;15.30;11.00;;;6.70;1.00;;;;;;5049183;28;20185;-63
2022/01/29 08:06:14;;;;;;;15.90;10.67;;;6.80;1.00;;;;;;5048497;28;20219;-63
2022/01/29 08:08:40;;;;;;;15.43;11.17;;;6.80;1.00;;;;;;5047282;28;20519;-63
2022/01/29 08:11:07;;;;;;;17.53;11.40;;;6.80;1.00;;;;;;5049013;28;20965;-66
2022/01/29 08:13:33;;;;;;;15.50;10.53;;;6.90;1.00;;;;;;5049205;28;20184;-63
2022/01/29 08:15:59;;;;;;;13.73;9.47;;;6.90;99.90;;;;;;5048279;28;20420;-68
2022/01/29 08:18:24;;;;;;;14.97;10.70;;;6.80;99.90;;;;;;5049161;28;20669;-67
2022/01/29 08:20:50;;;;;;;15.70;11.57;;;6.90;99.90;;;;;;5052041;28;20671;-64
2022/01/29 08:23:15;;;;;;;17.77;12.40;;;6.90;99.90;;;;;;5052730;28;20223;-68
2022/01/29 08:25:41;;;;;;;16.20;11.80;;;6.90;1.00;;;;;;5052727;28;20189;-64
2022/01/29 08:28:06;;;;;;;16.10;11.33;;;7.00;99.90;;;;;;5052793;28;20643;-63
2022/01/29 08:30:32;;;;;;;17.50;11.83;;;7.00;99.90;;;;;;5052868;28;20662;-62
2022/01/29 08:32:59;;;;;;;16.60;11.57;;;7.00;99.90;;;;;;5053346;28;20181;-69
2022/01/29 08:35:25;;;;;;;16.77;12.43;;;7.00;99.90;;;;;;5043633;28;20539;-67
2022/01/29 08:37:51;;;;;;;16.87;12.73;;;7.00;99.90;;;;;;5052652;28;20939;-64
2022/01/29 08:40:16;;;;;;;20.40;12.20;;;7.10;62.60;;;;;;5052018;28;20482;-63
2022/01/29 08:42:42;;;;;;;18.97;12.70;;;7.10;52.90;;;;;;5052521;28;20197;-63
2022/01/29 08:45:09;;;;;;;16.90;12.10;;;7.00;1.00;;;;;;5051913;28;20242;-63
2022/01/29 08:47:35;;;;;;;19.73;12.10;;;7.10;99.90;;;;;;5053118;28;20189;-63
2022/01/29 08:50:03;;;;;;;19.23;12.13;;;7.10;99.90;;;;;;5052778;28;20489;-63
2022/01/29 08:52:30;;;;;;;15.90;10.23;;;7.10;93.40;;;;;;5052982;28;20423;-62
2022/01/29 08:54:55;;;;;;;18.03;13.93;;;7.10;99.90;;;;;;5052570;28;20622;-63
2022/01/29 08:57:22;;;;;;;23.60;12.60;;;7.10;99.90;;;;;;5052866;28;20525;-62
2022/01/29 08:59:47;;;;;;;23.87;14.63;;;7.20;99.90;;;;;;5044007;28;20188;-63
2022/01/29 09:02:13;;;;;;;24.37;15.17;;;7.20;99.90;;;;;;5052342;28;20427;-62
2022/01/29 09:04:38;;;;;;;21.53;13.40;;;7.20;99.90;;;;;;5052441;28;20195;-61
2022/01/29 09:07:04;;;;;;;21.70;13.83;;;7.20;99.90;;;;;;5052601;28;20213;-61
2022/01/29 09:09:30;;;;;;;22.77;15.70;;;7.30;99.90;;;;;;5052119;28;20228;-63
2022/01/29 09:11:56;;;;;;;20.90;13.43;;;7.30;99.90;;;;;;5052388;28;20219;-62
2022/01/29 09:14:21;;;;;;;24.40;15.90;;;7.30;99.90;;;;;;5052183;28;20246;-62
2022/01/29 09:16:47;;;;;;;28.90;15.90;;;7.30;99.90;;;;;;5051998;28;20185;-62
2022/01/29 09:19:13;;;;;;;25.53;14.27;;;7.30;99.90;;;;;;5052552;28;20559;-62
2022/01/29 09:21:39;;;;;;;24.27;14.37;;;7.40;99.90;;;;;;5052161;28;20189;-61
2022/01/29 09:24:05;;;;;;;21.00;13.40;;;7.40;82.80;;;;;;5052048;28;20192;-61
2022/01/29 09:26:30;;;;;;;20.40;12.40;;;7.60;99.90;;;;;;5052114;28;20648;-63
2022/01/29 09:28:56;;;;;;;23.17;14.67;;;7.50;1.00;;;;;;5052189;28;20681;-63
2022/01/29 09:31:22;;;;;;;24.73;14.03;;;7.50;1.00;;;;;;5048972;28;20864;-64
2022/01/29 09:33:48;;;;;;;24.93;14.03;;;7.50;1.00;;;;;;5039853;28;20675;-63
2022/01/29 09:36:14;;;;;;;19.13;13.23;;;7.50;1.00;;;;;;5051419;28;20177;-61
2022/01/29 09:38:39;;;;;;;18.17;12.87;;;7.60;1.00;;;;;;5037270;28;20206;-63
2022/01/29 09:41:05;;;;;;;22.33;14.30;;;7.60;99.90;;;;;;5047798;28;20455;-58
2022/01/29 09:43:33;;;;;;;19.20;12.90;;;7.60;99.90;;;;;;5050797;28;20211;-62
2022/01/29 09:45:59;;;;;;;20.03;13.20;;;7.60;1.00;;;;;;5051688;28;20894;-64
2022/01/29 09:48:28;;;;;;;22.83;13.40;;;7.60;99.90;;;;;;5051229;28;20489;-64
2022/01/29 09:50:55;;;;;;;19.30;13.17;;;7.70;99.90;;;;;;5051747;28;20455;-67
2022/01/29 09:53:21;;;;;;;22.47;13.80;;;7.70;99.90;;;;;;5050855;28;20412;-63
2022/01/29 09:55:47;;;;;;;19.30;12.50;;;7.70;99.90;;;;;;5053577;28;20492;-64
2022/01/29 09:58:13;;;;;;;17.67;12.17;;;7.70;99.90;;;;;;5051648;28;20189;-61
2022/01/29 10:00:39;;;;;;;18.93;12.53;;;7.80;99.90;;;;;;5051449;28;20477;-60
2022/01/29 10:03:11;;;;;;;20.17;13.43;;;7.80;96.60;;;;;;5050990;28;20439;-65
2022/01/29 10:05:37;;;;;;;20.70;13.17;;;7.80;99.90;;;;;;5043438;28;20238;-61
2022/01/29 10:08:04;;;;;;;20.50;12.80;;;7.80;99.90;;;;;;5054981;28;20423;-60
2022/01/29 10:10:40;;;;;;;21.47;13.10;;;7.80;99.90;;;;;;5077214;28;20543;-61
2022/01/29 10:13:25;;;;;;;18.03;11.43;;;7.90;99.90;;;;;;5079131;28;20434;-62
2022/01/29 10:15:52;;;;;;;18.57;12.23;;;7.80;99.90;;;;;;5061682;28;20902;-64
2022/01/29 10:18:22;;;;;;;17.47;12.20;;;7.80;1.00;;;;;;5078934;28;20414;-63
2022/01/29 10:20:48;;;;;;;19.80;12.90;;;7.80;1.00;;;;;;5061862;28;21012;-62
2022/01/29 10:23:13;;;;;;;22.43;12.50;;;7.80;99.90;;;;;;5063812;28;20510;-62
2022/01/29 10:25:42;;;;;;;12.50;11.17;;;7.80;99.90;;;;;;5070977;28;20869;-62
2022/01/29 10:28:20;;;;;;;14.93;11.70;;;7.90;99.90;;;;;;5073067;28;20639;-62
2022/01/29 10:30:49;;;;;;;17.83;11.67;;;7.90;99.90;;;;;;5073105;28;20441;-62
2022/01/29 10:33:28;;;;;;;14.33;10.87;;;7.90;1.00;;;;;;5080438;28;20423;-60
2022/01/29 10:35:59;;;;;;;16.30;11.90;;;7.80;1.00;;;;;;5082726;28;20409;-61
2022/01/29 10:38:39;;;;;;;13.43;10.00;;;7.80;99.90;;;;;;5079737;28;20469;-61
2022/01/29 10:41:18;;;;;;;16.03;9.40;;;7.80;99.90;;;;;;5075280;28;20475;-61
2022/01/29 10:44:18;;;;;;;17.03;10.07;;;7.80;99.90;;;;;;5072531;28;20464;-61
2022/01/29 10:46:49;;;;;;;11.27;10.17;;;7.80;99.90;;;;;;5061626;28;20422;-61
2022/01/29 10:49:27;;;;;;;13.83;10.07;;;7.90;99.90;;;;;;5080358;28;20518;-61
2022/01/29 10:52:14;;;;;;;16.37;11.00;;;7.90;99.90;;;;;;5082501;28;21002;-61
2022/01/29 10:54:42;;;;;;;11.70;9.83;;;7.90;1.00;;;;;;5071851;28;20415;-60
2022/01/29 10:57:11;;;;;;;11.70;9.70;;;7.90;99.90;;;;;;5079178;28;20415;-62
2022/01/29 10:59:48;;;;;;;13.07;9.10;;;7.90;1.00;;;;;;5064289;28;20456;-61
2022/01/29 11:02:14;;;;;;;11.77;10.00;;;7.90;1.00;;;;;;5084382;28;20945;-62
2022/01/29 11:04:42;;;;;;;12.70;8.77;;;7.90;99.90;;;;;;5078412;28;20419;-62
2022/01/29 11:07:16;;;;;;;11.83;10.63;;;7.90;99.90;;;;;;5078979;28;20414;-61
2022/01/29 11:09:44;;;;;;;15.00;10.40;;;7.90;99.90;;;;;;5081982;28;20464;-62
2022/01/29 11:12:12;;;;;;;13.90;9.73;;;7.90;99.90;;;;;;5078767;28;20477;-62
2022/01/29 11:14:40;;;;;;;12.67;10.07;;;8.00;99.90;;;;;;5078752;28;20889;-62
2022/01/29 11:17:05;;;;;;;14.30;11.07;;;7.90;1.00;;;;;;5078511;28;20468;-62
2022/01/29 11:19:32;;;;;;;13.60;9.97;;;8.00;62.90;;;;;;5063809;28;20494;-62
2022/01/29 11:22:03;;;;;;;13.50;9.53;;;8.00;32.20;;;;;;5082025;28;20276;-61
2022/01/29 11:24:30;;;;;;;14.70;10.07;;;8.00;1.00;;;;;;5078761;28;20422;-61
2022/01/29 11:26:56;;;;;;;15.63;10.00;;;8.10;1.00;;;;;;5078594;28;20419;-61
2022/01/29 11:29:25;;;;;;;10.37;9.40;;;8.10;99.90;;;;;;5080707;28;20419;-61
2022/01/29 11:32:22;;;;;;;11.47;8.80;;;8.10;99.90;;;;;;5081933;28;20489;-62
2022/01/29 11:35:07;;;;;;;11.57;9.30;;;8.10;99.90;;;;;;5068143;28;20480;-62
2022/01/29 11:37:41;;;;;;;12.17;9.40;;;8.10;99.90;;;;;;5070087;28;20422;-62
2022/01/29 11:40:32;;;;;;;13.83;10.00;;;8.10;1.00;;;;;;5059911;28;20463;-62
2022/01/29 11:43:34;;;;;;;14.27;8.73;;;8.10;1.00;;;;;;5068922;28;20418;-62
2022/01/29 11:46:20;;;;;;;12.20;9.27;;;8.10;1.00;;;;;;5066613;28;20434;-62
2022/01/29 11:48:59;;;;;;;12.20;9.63;;;8.20;1.00;;;;;;5072071;28;20442;-62
2022/01/29 11:51:44;;;;;;;10.73;9.63;;;8.20;99.90;;;;;;5080510;28;20541;-62
2022/01/29 11:54:14;;;;;;;10.33;8.93;;;8.20;1.00;;;;;;5081092;28;20406;-62
2022/01/29 11:56:41;;;;;;;11.60;9.03;;;8.20;1.00;;;;;;5082057;28;20415;-62
2022/01/29 11:59:19;;;;;;;10.90;9.10;;;8.30;1.00;;;;;;5081500;28;20414;-62
2022/01/29 12:01:47;;;;;;;12.10;9.80;;;8.30;1.00;;;;;;5083737;28;20418;-62
2022/01/29 12:04:16;;;;;;;10.33;9.33;;;8.30;99.90;;;;;;5082704;28;20422;-62
2022/01/29 12:07:07;;;;;;;13.37;10.10;;;8.30;99.90;;;;;;5084480;28;20656;-62
2022/01/29 12:09:43;;;;;;;15.77;11.10;;;8.30;99.90;;;;;;5050338;28;20478;-61
2022/01/29 12:12:22;;;;;;;11.20;9.80;;;8.30;99.90;;;;;;5053309;28;20838;-60
2022/01/29 12:14:50;;;;;;;10.10;9.10;;;8.40;99.90;;;;;;5053015;28;20423;-62
2022/01/29 12:17:36;;;;;;;13.70;11.20;;;8.30;99.90;;;;;;5053639;28;20905;-62
2022/01/29 12:20:04;;;;;;;11.03;8.93;;;8.40;99.90;;;;;;5053497;28;20507;-62
2022/01/29 12:22:34;;;;;;;11.63;10.40;;;8.40;99.90;;;;;;5052864;28;20458;-62
2022/01/29 12:25:01;;;;;;;13.40;9.57;;;8.40;1.00;;;;;;5053132;28;20415;-62
2022/01/29 12:27:42;;;;;;;13.30;10.73;;;8.40;1.00;;;;;;5053316;28;20426;-62
2022/01/29 12:30:10;;;;;;;10.80;9.70;;;8.40;1.00;;;;;;5053092;28;20411;-62
2022/01/29 12:32:36;;;;;;;10.90;9.80;;;8.40;99.90;;;;;;5053178;28;20419;-62
2022/01/29 12:35:03;;;;;;;14.20;10.67;;;8.40;1.00;;;;;;5053070;28;20477;-62
2022/01/29 12:37:29;;;;;;;16.60;10.43;;;8.40;1.00;;;;;;5053116;28;20184;-61
2022/01/29 12:40:19;;;;;;;11.80;9.87;;;8.40;1.00;;;;;;5053017;28;20813;-62
2022/01/29 12:42:55;;;;;;;12.23;9.83;;;8.40;1.00;;;;;;5046773;28;20169;-62
2022/01/29 12:45:22;;;;;;;11.10;9.90;;;8.40;1.00;;;;;;5043310;28;20473;-62
2022/01/29 12:47:47;;;;;;;12.33;10.40;;;8.50;1.00;;;;;;5053030;28;20407;-62
2022/01/29 12:50:21;;;;;;;12.43;10.00;;;8.50;1.00;;;;;;5052319;28;20426;-62
2022/01/29 12:52:48;;;;;;;13.53;9.70;;;8.40;1.00;;;;;;5052137;28;20184;-62
2022/01/29 12:55:13;;;;;;;16.60;10.67;;;8.40;1.00;;;;;;5052684;28;20874;-62
2022/01/29 12:57:44;;;;;;;13.83;11.10;;;8.50;1.00;;;;;;5052628;28;20411;-62